Terminal Aerodrome Forecast
Issued by NWS North Platte, NE

Home | Current Version | Previous Version | Graphics & Text | Print | Product List | Glossary On
Versions: 1 2 3 4 5 6 7 8 9 10 11 12 13 14 15 16
000
FTUS43 KLBF 271120
TAFVTN
TAF
KVTN 271120Z 2712/2812 06004KT P6SM SCT250
     FM271700 17015G24KT P6SM SCT200
     FM280300 17012KT P6SM BKN070 OVC200 PROB30 2803/2806 VRB35G46KT
      2SM +TSRA BKN050CB=

USA.gov is the U.S. government's official web portal to all federal, state and local government web resources and services.